Time;durP1;ratioP1;P1;durP2;ratioP2;P2;SDS_P1;SDS_P2;PMS_P1;PMS_P2;Temp;Humidity;BMP_temperature;BMP_pressure;BME280_temperature;BME280_humidity;BME280_pressure;Samples;Min_cycle;Max_cycle;Signal;HPM_P1;HPM_P2
2024/01/09 00:01:13;;;;;;;1999.90;999.90;;;-3.40;40.90;;;;;;5013071;28;20175;-68
2024/01/09 00:03:38;;;;;;;1999.90;999.90;;;-3.30;41.70;;;;;;5012719;28;20694;-68
2024/01/09 00:06:04;;;;;;;1999.90;999.90;;;-3.30;41.20;;;;;;5013097;28;20249;-68
2024/01/09 00:08:30;;;;;;;1999.90;999.90;;;-3.30;41.00;;;;;;5012585;28;20197;-68
2024/01/09 00:10:59;;;;;;;1999.90;999.90;;;-3.40;42.50;;;;;;5012864;28;20162;-68
2024/01/09 00:13:24;;;;;;;1999.90;999.90;;;-3.30;42.20;;;;;;5012821;28;20223;-68
2024/01/09 00:15:50;;;;;;;1999.90;999.90;;;-3.40;42.20;;;;;;5012869;28;20618;-68
2024/01/09 00:18:15;;;;;;;1999.90;999.90;;;-3.50;42.20;;;;;;5012848;28;20193;-68
2024/01/09 00:20:41;;;;;;;1999.90;999.90;;;-3.50;43.40;;;;;;5012427;28;20173;-69
2024/01/09 00:23:06;;;;;;;1999.90;999.90;;;-3.50;44.30;;;;;;5013050;28;20547;-68
2024/01/09 00:25:32;;;;;;;1999.90;999.90;;;-3.50;45.30;;;;;;4997731;28;20636;-68
2024/01/09 00:27:58;;;;;;;1999.90;999.90;;;-3.50;45.90;;;;;;4998822;28;20598;-68
2024/01/09 00:30:24;;;;;;;1999.90;999.90;;;-3.40;46.30;;;;;;5016174;28;20517;-68
2024/01/09 00:32:50;;;;;;;1999.90;999.90;;;-3.40;45.60;;;;;;5015756;28;20169;-68
2024/01/09 00:35:16;;;;;;;1999.90;999.90;;;-3.40;46.30;;;;;;5015320;28;20530;-68
2024/01/09 00:37:42;;;;;;;1999.90;999.90;;;-3.60;46.50;;;;;;5014908;28;20561;-69
2024/01/09 00:40:08;;;;;;;1999.90;999.90;;;-3.40;47.40;;;;;;5014909;28;20263;-68
2024/01/09 00:42:34;;;;;;;1999.90;999.90;;;-3.50;45.20;;;;;;5014712;28;20173;-69
2024/01/09 00:45:01;;;;;;;1999.90;999.90;;;-3.50;47.10;;;;;;5014544;28;20184;-69
2024/01/09 00:47:27;;;;;;;1999.90;999.90;;;-3.30;47.20;;;;;;5014506;28;20200;-69
2024/01/09 00:49:53;;;;;;;1999.90;999.90;;;-3.40;48.30;;;;;;5014708;28;20173;-69
2024/01/09 00:52:18;;;;;;;1999.90;999.90;;;-3.40;48.40;;;;;;5014623;28;20200;-68
2024/01/09 00:54:45;;;;;;;1999.90;999.90;;;-3.60;48.60;;;;;;5014432;28;20232;-69
2024/01/09 00:57:11;;;;;;;1999.90;999.90;;;-3.40;49.70;;;;;;5014507;28;20196;-69
2024/01/09 00:59:36;;;;;;;1999.90;999.90;;;-3.10;49.90;;;;;;5014587;28;20173;-69
2024/01/09 01:02:02;;;;;;;1999.90;999.90;;;-3.50;50.80;;;;;;5014491;28;20174;-69
2024/01/09 01:04:28;;;;;;;1999.90;999.90;;;-3.70;51.00;;;;;;5014118;28;20173;-68
2024/01/09 01:06:53;;;;;;;1999.90;999.90;;;-3.50;52.50;;;;;;5014264;28;20201;-68
2024/01/09 01:09:19;;;;;;;1999.90;999.90;;;-3.50;52.80;;;;;;5014350;28;20606;-69
2024/01/09 01:11:45;;;;;;;1999.90;999.90;;;-3.50;54.40;;;;;;5014287;28;20219;-69
2024/01/09 01:14:11;;;;;;;1999.90;999.90;;;-3.50;54.50;;;;;;5013991;28;20176;-70
2024/01/09 01:16:36;;;;;;;1999.90;999.90;;;-3.60;55.50;;;;;;5014086;28;20188;-69
2024/01/09 01:19:02;;;;;;;1999.90;999.90;;;-3.60;56.10;;;;;;5014182;28;20404;-68
2024/01/09 01:21:28;;;;;;;1999.90;999.90;;;-3.70;56.20;;;;;;5014112;28;20173;-68
2024/01/09 01:23:53;;;;;;;1999.90;999.90;;;-3.60;57.50;;;;;;5013860;28;20896;-70
2024/01/09 01:26:19;;;;;;;1999.90;999.90;;;-3.70;57.60;;;;;;5014166;28;20169;-68
2024/01/09 01:28:45;;;;;;;1999.90;999.90;;;-3.60;58.50;;;;;;5013772;28;20268;-69
2024/01/09 01:31:10;;;;;;;1999.90;999.90;;;-3.60;58.30;;;;;;4996503;28;20169;-69
2024/01/09 01:33:36;;;;;;;1999.90;999.90;;;-3.80;59.00;;;;;;5013680;28;20447;-68
2024/01/09 01:36:02;;;;;;;1999.90;999.90;;;-3.70;60.70;;;;;;5013413;28;20193;-69
2024/01/09 01:38:28;;;;;;;1999.90;999.90;;;-3.80;60.40;;;;;;5013704;28;20255;-69
2024/01/09 01:40:54;;;;;;;1999.90;999.90;;;-3.60;62.10;;;;;;5013722;28;20169;-68
2024/01/09 01:43:19;;;;;;;1999.90;999.90;;;-3.60;61.60;;;;;;5013454;28;20164;-69
2024/01/09 01:45:45;;;;;;;1999.90;999.90;;;-3.70;62.00;;;;;;5013653;28;20173;-70
2024/01/09 01:48:11;;;;;;;1999.90;999.90;;;-3.70;62.00;;;;;;5013345;28;20200;-69
2024/01/09 01:50:38;;;;;;;1999.90;999.90;;;-3.80;64.10;;;;;;5013579;28;20664;-68
2024/01/09 01:53:06;;;;;;;1999.90;999.90;;;-3.80;63.90;;;;;;5013285;28;20488;-68
2024/01/09 01:55:33;;;;;;;1999.90;999.90;;;-3.80;65.10;;;;;;5013530;28;20176;-69
2024/01/09 01:58:00;;;;;;;1999.90;999.90;;;-3.80;65.40;;;;;;5013352;28;20200;-69
2024/01/09 02:00:26;;;;;;;1999.90;999.90;;;-3.80;64.90;;;;;;5013435;28;20176;-68
2024/01/09 02:02:53;;;;;;;1999.90;999.90;;;-3.80;65.70;;;;;;5013092;28;20165;-68
2024/01/09 02:05:21;;;;;;;1999.90;999.90;;;-3.80;66.20;;;;;;5013310;28;20199;-69
2024/01/09 02:07:49;;;;;;;1999.90;999.90;;;-3.90;66.40;;;;;;5013051;28;20707;-69
2024/01/09 02:10:16;;;;;;;1999.90;999.90;;;-3.90;67.70;;;;;;5013438;28;20176;-69
2024/01/09 02:12:42;;;;;;;1999.90;999.90;;;-3.90;69.10;;;;;;5013206;28;20161;-68
2024/01/09 02:15:08;;;;;;;1999.90;999.90;;;-4.00;70.70;;;;;;5012923;28;20307;-68
2024/01/09 02:17:34;;;;;;;1999.90;999.90;;;-4.10;68.70;;;;;;5013014;28;20185;-68
2024/01/09 02:20:00;;;;;;;1999.90;999.90;;;-3.90;69.80;;;;;;5013058;28;20173;-68
2024/01/09 02:22:25;;;;;;;1999.90;999.90;;;-4.10;69.10;;;;;;5013029;28;20255;-68
2024/01/09 02:24:51;;;;;;;1999.90;999.90;;;-4.00;69.80;;;;;;5012787;28;20165;-69
2024/01/09 02:27:54;;;;;;;1999.90;999.90;;;-4.00;68.80;;;;;;5012813;28;20205;-68
2024/01/09 02:30:20;;;;;;;1999.90;999.90;;;-4.10;64.60;;;;;;5012539;28;20192;-68
2024/01/09 02:32:47;;;;;;;1999.90;999.90;;;-4.00;68.80;;;;;;5012523;28;20242;-68
2024/01/09 02:35:13;;;;;;;1999.90;999.90;;;-3.80;69.50;;;;;;5012795;28;20199;-68
2024/01/09 02:37:38;;;;;;;1999.90;999.90;;;-3.80;67.30;;;;;;5012577;28;20271;-68
2024/01/09 02:40:07;;;;;;;1999.90;999.90;;;-3.90;68.10;;;;;;5012752;28;20201;-68
2024/01/09 02:42:32;;;;;;;1999.90;999.90;;;-4.10;66.90;;;;;;5012659;28;20176;-68
2024/01/09 02:44:58;;;;;;;1999.90;999.90;;;-4.10;68.80;;;;;;5012306;28;20252;-68
2024/01/09 02:47:25;;;;;;;1999.90;999.90;;;-4.00;70.20;;;;;;5011533;28;20243;-68
2024/01/09 02:49:51;;;;;;;1999.90;999.90;;;-4.00;70.50;;;;;;5012591;28;20173;-68
2024/01/09 02:52:17;;;;;;;1999.90;999.90;;;-4.00;70.80;;;;;;5012513;28;20596;-68
2024/01/09 02:54:42;;;;;;;1999.90;999.90;;;-4.10;73.20;;;;;;5012296;28;20708;-69
2024/01/09 02:57:09;;;;;;;1999.90;999.90;;;-4.00;73.30;;;;;;5012375;28;20776;-68
2024/01/09 02:59:35;;;;;;;1999.90;999.90;;;-4.10;72.90;;;;;;5012394;28;20400;-69
2024/01/09 03:02:01;;;;;;;1999.90;999.90;;;-4.00;73.00;;;;;;5012216;28;20545;-68
2024/01/09 03:04:26;;;;;;;1999.90;999.90;;;-4.00;73.60;;;;;;5012104;28;20172;-68
2024/01/09 03:06:52;;;;;;;1999.90;999.90;;;-3.90;75.10;;;;;;5012151;28;20220;-68
2024/01/09 03:09:18;;;;;;;1999.90;999.90;;;-4.00;76.50;;;;;;4994674;28;20335;-69
2024/01/09 03:11:44;;;;;;;1999.90;999.90;;;-4.00;77.90;;;;;;5012255;28;20172;-68
2024/01/09 03:14:09;;;;;;;1999.90;999.90;;;-4.00;79.10;;;;;;5011901;28;20176;-68
2024/01/09 03:16:35;;;;;;;1999.90;999.90;;;;;;;;;;5011656;28;20169;-68
2024/01/09 03:19:01;;;;;;;1999.90;999.90;;;-4.20;75.80;;;;;;5012085;28;20176;-68
2024/01/09 03:21:27;;;;;;;1999.90;999.90;;;-4.10;84.70;;;;;;5012082;28;20522;-68
2024/01/09 03:23:52;;;;;;;1999.90;999.90;;;-4.20;83.80;;;;;;5011899;28;20169;-69
2024/01/09 03:26:18;;;;;;;1999.90;999.90;;;-4.20;84.60;;;;;;5012009;28;20169;-69
2024/01/09 03:28:44;;;;;;;1999.90;999.90;;;-4.30;86.00;;;;;;5011994;28;20196;-68
2024/01/09 03:31:18;;;;;;;1999.90;999.90;;;-4.20;87.40;;;;;;5011986;28;20565;-70
2024/01/09 03:33:44;;;;;;;1999.90;999.90;;;-4.30;89.70;;;;;;5011839;28;20188;-69
2024/01/09 03:36:10;;;;;;;1999.90;999.90;;;-4.30;90.00;;;;;;5012003;28;20173;-68
2024/01/09 03:38:35;;;;;;;1999.90;999.90;;;-4.20;90.40;;;;;;5011993;28;20203;-69
2024/01/09 03:41:02;;;;;;;1999.90;999.90;;;-4.20;90.70;;;;;;5012045;28;20954;-68
2024/01/09 03:43:27;;;;;;;1999.90;999.90;;;-4.30;90.30;;;;;;5011690;28;20222;-69
2024/01/09 03:45:54;;;;;;;1999.90;999.90;;;-4.20;90.80;;;;;;5011823;28;20644;-68
2024/01/09 03:48:20;;;;;;;1999.90;999.90;;;-4.30;90.90;;;;;;5011819;28;20886;-68
2024/01/09 03:50:45;;;;;;;1999.90;999.90;;;-4.30;91.30;;;;;;5011957;28;20200;-68
2024/01/09 03:53:11;;;;;;;1999.90;999.90;;;-4.40;90.40;;;;;;5011632;28;20188;-68
2024/01/09 03:58:11;;;;;;;1999.90;999.90;;;-4.50;86.50;;;;;;5010257;28;20215;-71
2024/01/09 04:00:37;;;;;;;1999.90;999.90;;;-4.30;90.80;;;;;;5014048;28;20227;-71
2024/01/09 04:03:04;;;;;;;1999.90;999.90;;;-4.60;90.90;;;;;;5015314;28;20185;-71
2024/01/09 04:05:30;;;;;;;1999.90;999.90;;;-4.50;90.80;;;;;;5015612;28;20173;-70
2024/01/09 04:07:55;;;;;;;1999.90;999.90;;;-4.40;91.50;;;;;;5015342;28;20212;-70
2024/01/09 04:10:21;;;;;;;1999.90;999.90;;;-4.40;91.60;;;;;;5015535;28;20173;-70
2024/01/09 04:12:46;;;;;;;1999.90;999.90;;;-4.50;91.70;;;;;;5015247;28;20177;-71
2024/01/09 04:15:12;;;;;;;1999.90;999.90;;;-4.50;92.40;;;;;;5015367;28;20197;-70
2024/01/09 04:17:38;;;;;;;1999.90;999.90;;;-4.50;92.00;;;;;;5015499;28;20664;-70
2024/01/09 04:20:04;;;;;;;1999.90;999.90;;;-4.50;92.10;;;;;;5015384;28;20408;-70
2024/01/09 04:22:30;;;;;;;1999.90;999.90;;;-4.70;91.60;;;;;;5015301;28;20179;-70
2024/01/09 04:24:56;;;;;;;1999.90;999.90;;;-4.50;91.90;;;;;;5014995;28;20169;-70
2024/01/09 04:27:22;;;;;;;1999.90;999.90;;;-4.50;91.00;;;;;;5014953;28;20459;-70
2024/01/09 04:29:47;;;;;;;1999.90;999.90;;;-4.20;90.60;;;;;;5015233;28;20204;-70
2024/01/09 04:32:13;;;;;;;1999.90;999.90;;;-4.50;89.80;;;;;;5015096;28;20205;-71
2024/01/09 04:34:39;;;;;;;1999.90;999.90;;;-4.50;89.20;;;;;;5014857;28;20646;-70
2024/01/09 04:37:04;;;;;;;1999.90;999.90;;;-4.40;87.50;;;;;;5014955;28;20442;-70
2024/01/09 04:39:30;;;;;;;1999.90;999.90;;;-4.30;87.40;;;;;;5015108;28;20201;-70
2024/01/09 04:41:56;;;;;;;1999.90;999.90;;;-4.40;86.00;;;;;;5014894;28;20177;-70
2024/01/09 04:44:22;;;;;;;1999.90;999.90;;;-4.40;85.30;;;;;;5014660;28;20184;-70
2024/01/09 04:46:47;;;;;;;1999.90;999.90;;;-4.40;84.70;;;;;;5014632;28;20201;-70
2024/01/09 04:49:13;;;;;;;1999.90;999.90;;;-4.40;84.50;;;;;;5014869;28;20914;-69
2024/01/09 04:51:40;;;;;;;1999.90;999.90;;;-4.40;84.70;;;;;;5014781;28;20165;-69
2024/01/09 04:54:05;;;;;;;1999.90;999.90;;;-4.40;83.20;;;;;;5014444;28;20419;-70
2024/01/09 04:56:31;;;;;;;1999.90;999.90;;;-4.40;82.70;;;;;;5014428;28;20196;-70
2024/01/09 04:58:57;;;;;;;1999.90;999.90;;;-4.40;81.50;;;;;;5014582;28;20499;-70
2024/01/09 05:01:22;;;;;;;1999.90;999.90;;;-4.40;81.80;;;;;;5014717;28;20227;-71
2024/01/09 05:03:49;;;;;;;1999.90;999.90;;;-4.50;81.70;;;;;;5014289;28;20197;-71
2024/01/09 05:06:16;;;;;;;1999.90;999.90;;;-4.50;83.60;;;;;;5014368;28;20187;-71
2024/01/09 05:08:42;;;;;;;1999.90;999.90;;;-4.50;82.60;;;;;;5014472;28;20296;-71
2024/01/09 05:11:08;;;;;;;1999.90;999.90;;;-4.70;83.30;;;;;;5013583;28;20607;-71
2024/01/09 05:13:33;;;;;;;1999.90;999.90;;;-4.70;85.20;;;;;;5014121;28;20239;-72
2024/01/09 05:15:59;;;;;;;1999.90;999.90;;;-4.70;86.40;;;;;;5014181;28;20276;-72
2024/01/09 05:18:25;;;;;;;1999.90;999.90;;;-4.60;87.80;;;;;;5014389;28;20264;-72
2024/01/09 05:20:51;;;;;;;1999.90;999.90;;;-4.60;87.90;;;;;;5014239;28;20173;-71
2024/01/09 05:23:16;;;;;;;1999.90;999.90;;;-4.60;87.20;;;;;;5013926;28;20236;-71
2024/01/09 05:25:42;;;;;;;1999.90;999.90;;;;;;;;;;5013991;28;20165;-71
2024/01/09 05:28:08;;;;;;;1999.90;999.90;;;-4.60;81.00;;;;;;5013970;28;20200;-71
2024/01/09 05:30:34;;;;;;;1999.90;999.90;;;-4.60;87.50;;;;;;5013990;28;20169;-72
2024/01/09 05:33:00;;;;;;;1999.90;999.90;;;-4.70;88.70;;;;;;5013690;28;20491;-71
2024/01/09 05:35:25;;;;;;;1999.90;999.90;;;-4.60;89.50;;;;;;5013911;28;20645;-71
2024/01/09 05:37:51;;;;;;;1999.90;999.90;;;-4.70;90.20;;;;;;5013909;28;20202;-72
2024/01/09 05:40:17;;;;;;;1999.90;999.90;;;-4.60;89.90;;;;;;5014184;28;20201;-71
2024/01/09 05:42:43;;;;;;;1999.90;999.90;;;-4.70;89.90;;;;;;5014521;28;20542;-71
2024/01/09 05:45:10;;;;;;;1999.90;999.90;;;-5.30;89.70;;;;;;5013714;28;20438;-70
2024/01/09 05:47:35;;;;;;;1999.90;999.90;;;-4.70;90.50;;;;;;5013557;28;20332;-70
2024/01/09 05:50:01;;;;;;;1999.90;999.90;;;-4.60;90.10;;;;;;5013702;28;20264;-70
2024/01/09 05:52:27;;;;;;;1999.90;999.90;;;-4.60;90.10;;;;;;5013111;28;20184;-70
2024/01/09 05:54:52;;;;;;;1999.90;999.90;;;-4.60;90.00;;;;;;5013116;28;20439;-70
2024/01/09 05:57:18;;;;;;;1999.90;999.90;;;-4.60;90.50;;;;;;5013281;28;20342;-70
2024/01/09 05:59:44;;;;;;;1999.90;999.90;;;-5.00;90.90;;;;;;5013489;28;20184;-70
2024/01/09 06:02:10;;;;;;;1999.90;999.90;;;-4.60;91.70;;;;;;5013423;28;20256;-71
2024/01/09 06:04:35;;;;;;;1999.90;999.90;;;-4.60;91.10;;;;;;5013210;28;20250;-70
2024/01/09 06:07:01;;;;;;;1999.90;999.90;;;-4.90;91.10;;;;;;5012866;28;20201;-71
2024/01/09 06:09:27;;;;;;;1999.90;999.90;;;-4.70;91.70;;;;;;5012997;28;20223;-70
2024/01/09 06:11:52;;;;;;;1999.90;999.90;;;-4.70;91.50;;;;;;5013034;28;20419;-70
2024/01/09 06:14:18;;;;;;;1999.90;999.90;;;-4.70;91.60;;;;;;5012958;28;20165;-70
2024/01/09 06:16:44;;;;;;;1999.90;999.90;;;-4.90;91.30;;;;;;5013115;28;20275;-70
2024/01/09 06:19:09;;;;;;;1999.90;999.90;;;-4.70;92.10;;;;;;5013108;28;20169;-70
2024/01/09 06:21:35;;;;;;;1999.90;999.90;;;-4.80;92.10;;;;;;5013133;28;20211;-70
2024/01/09 06:24:00;;;;;;;1999.90;999.90;;;-4.70;91.90;;;;;;5012213;28;20205;-71
2024/01/09 06:26:26;;;;;;;1999.90;999.90;;;-4.90;91.80;;;;;;5012556;28;20570;-71
2024/01/09 06:28:52;;;;;;;1999.90;999.90;;;-4.70;91.90;;;;;;5012886;28;20161;-71
2024/01/09 06:31:17;;;;;;;1999.90;999.90;;;-4.70;92.30;;;;;;5012964;28;20165;-71
2024/01/09 06:33:43;;;;;;;1999.90;999.90;;;-4.70;92.30;;;;;;5012658;28;20196;-72
2024/01/09 06:36:08;;;;;;;1999.90;999.90;;;-4.70;92.90;;;;;;5012806;28;20652;-72
2024/01/09 06:38:34;;;;;;;1999.90;999.90;;;-4.60;92.60;;;;;;5012306;28;20228;-70
2024/01/09 06:41:00;;;;;;;1999.90;999.90;;;-4.70;92.40;;;;;;5012706;28;20181;-71
2024/01/09 06:43:25;;;;;;;1999.90;999.90;;;-4.60;93.10;;;;;;5012476;28;20180;-70
2024/01/09 06:45:51;;;;;;;1999.90;999.90;;;;;;;;;;5012677;28;20275;-71
2024/01/09 06:48:17;;;;;;;1999.90;999.90;;;-4.70;90.90;;;;;;5012586;28;20201;-71
2024/01/09 06:50:43;;;;;;;1999.90;999.90;;;-4.60;93.60;;;;;;5012639;28;20308;-71
2024/01/09 06:53:08;;;;;;;1999.90;999.90;;;-4.60;94.20;;;;;;5011836;28;20169;-71
2024/01/09 06:55:34;;;;;;;1999.90;999.90;;;-4.60;93.50;;;;;;5012338;28;20203;-70
2024/01/09 06:58:01;;;;;;;1999.90;999.90;;;-4.80;94.00;;;;;;5012189;28;20207;-71
2024/01/09 07:00:27;;;;;;;1999.90;999.90;;;-4.70;94.20;;;;;;5012423;28;20164;-70
2024/01/09 07:02:53;;;;;;;1999.90;999.90;;;-4.80;94.70;;;;;;5012250;28;20260;-70
2024/01/09 07:05:18;;;;;;;1999.90;999.90;;;-4.80;95.80;;;;;;5012355;28;20173;-70
2024/01/09 07:07:44;;;;;;;1999.90;999.90;;;-4.80;96.50;;;;;;5011757;28;20636;-70
2024/01/09 07:10:09;;;;;;;1999.90;999.90;;;-4.60;97.10;;;;;;5012104;28;20251;-71
2024/01/09 07:12:35;;;;;;;1999.90;999.90;;;-4.60;96.30;;;;;;5012107;28;20181;-71
2024/01/09 07:15:00;;;;;;;1999.90;999.90;;;-4.60;95.50;;;;;;5012021;28;20161;-70
2024/01/09 07:17:26;;;;;;;1999.90;999.90;;;-4.60;96.20;;;;;;5012155;28;20193;-70
2024/01/09 07:19:52;;;;;;;1999.90;999.90;;;-4.60;96.40;;;;;;5012216;28;20248;-70
2024/01/09 07:22:17;;;;;;;1999.90;999.90;;;-4.80;96.40;;;;;;5012097;28;20172;-71
2024/01/09 07:24:43;;;;;;;1999.90;999.90;;;-4.70;96.60;;;;;;5011654;28;20508;-71
2024/01/09 07:27:08;;;;;;;1999.90;999.90;;;-4.60;97.00;;;;;;5011710;28;20212;-70
2024/01/09 07:29:34;;;;;;;1999.90;999.90;;;-4.70;97.30;;;;;;5011912;28;20193;-70
2024/01/09 07:31:59;;;;;;;1999.90;999.90;;;-4.60;97.00;;;;;;5011952;28;20165;-70
2024/01/09 07:34:25;;;;;;;1999.90;999.90;;;-4.60;96.10;;;;;;5016921;28;20164;-70
2024/01/09 07:36:50;;;;;;;1999.90;999.90;;;-4.50;96.10;;;;;;5018488;28;20776;-71
2024/01/09 07:39:16;;;;;;;1999.90;999.90;;;-4.60;96.20;;;;;;5018482;28;20203;-69
2024/01/09 07:41:42;;;;;;;1999.90;999.90;;;-4.50;95.50;;;;;;5018220;28;20210;-69
2024/01/09 07:44:07;;;;;;;1999.90;999.90;;;-4.60;95.60;;;;;;5018128;28;20184;-70
2024/01/09 07:46:33;;;;;;;1999.90;999.90;;;-4.60;95.70;;;;;;5018293;28;20208;-70
2024/01/09 07:48:58;;;;;;;1999.90;999.90;;;-4.50;95.60;;;;;;5018464;28;20636;-71
2024/01/09 07:51:24;;;;;;;1999.90;999.90;;;-4.60;95.80;;;;;;5018440;28;20168;-70
2024/01/09 07:53:50;;;;;;;1999.90;999.90;;;-5.40;95.20;;;;;;5018293;28;20640;-70
2024/01/09 07:56:17;;;;;;;1999.90;999.90;;;-4.60;95.40;;;;;;5017688;28;20216;-70
2024/01/09 07:58:43;;;;;;;1999.90;999.90;;;-4.60;95.10;;;;;;5018458;28;20555;-71
2024/01/09 08:01:10;;;;;;;1999.90;999.90;;;-4.50;95.60;;;;;;5018322;28;20259;-71
2024/01/09 08:03:36;;;;;;;1999.90;999.90;;;-4.50;95.20;;;;;;5018049;28;20173;-71
2024/01/09 08:06:02;;;;;;;1999.90;999.90;;;-4.30;95.30;;;;;;5018263;28;20193;-71
2024/01/09 08:08:27;;;;;;;1999.90;999.90;;;-4.40;94.80;;;;;;5018244;28;20251;-71
2024/01/09 08:10:53;;;;;;;1999.90;999.90;;;-4.40;94.30;;;;;;5018250;28;20169;-71
2024/01/09 08:13:18;;;;;;;1999.90;999.90;;;-4.40;94.60;;;;;;5017679;28;20177;-71
2024/01/09 08:15:44;;;;;;;1999.90;999.90;;;;;;;;;;5018158;28;20644;-71
2024/01/09 08:18:10;;;;;;;1999.90;999.90;;;-4.50;92.30;;;;;;5018214;28;20256;-71
2024/01/09 08:20:35;;;;;;;1999.90;999.90;;;-4.20;95.00;;;;;;5018140;28;20415;-72
2024/01/09 08:23:02;;;;;;;1999.90;999.90;;;-4.20;94.60;;;;;;5018030;28;20195;-71
2024/01/09 08:25:28;;;;;;;1999.90;999.90;;;-4.20;94.60;;;;;;5018163;28;20173;-71
2024/01/09 08:27:54;;;;;;;1999.90;999.90;;;-4.40;93.90;;;;;;5017550;28;20215;-72
2024/01/09 08:30:19;;;;;;;1999.90;999.90;;;-4.10;93.50;;;;;;5015260;28;20430;-71
2024/01/09 08:32:45;;;;;;;1999.90;999.90;;;-4.10;93.00;;;;;;5018057;28;20165;-72
2024/01/09 08:35:11;;;;;;;1999.90;999.90;;;-4.40;92.60;;;;;;5017695;28;20184;-70
2024/01/09 08:37:36;;;;;;;1999.90;999.90;;;-4.00;92.20;;;;;;5017257;28;20601;-72
2024/01/09 08:40:02;;;;;;;1999.90;999.90;;;-4.00;91.90;;;;;;5017763;28;20248;-72
2024/01/09 08:42:28;;;;;;;1999.90;999.90;;;-4.00;91.30;;;;;;4999870;28;20267;-72
2024/01/09 08:44:53;;;;;;;1999.90;999.90;;;-3.90;91.20;;;;;;5015206;28;20263;-72
2024/01/09 08:47:19;;;;;;;1999.90;999.90;;;-3.90;89.60;;;;;;5014719;28;20209;-72
2024/01/09 08:49:44;;;;;;;1999.90;999.90;;;-4.20;87.50;;;;;;5014790;28;20228;-72
2024/01/09 08:52:10;;;;;;;1999.90;999.90;;;-4.00;89.30;;;;;;5014784;28;20173;-72
2024/01/09 08:54:36;;;;;;;1999.90;999.90;;;-3.70;89.50;;;;;;5014357;28;20723;-72
2024/01/09 08:57:01;;;;;;;1999.90;999.90;;;-3.70;87.50;;;;;;5014410;28;20235;-72
2024/01/09 08:59:27;;;;;;;1999.90;999.90;;;-3.40;86.50;;;;;;5014724;28;20204;-72
2024/01/09 09:01:52;;;;;;;1999.90;999.90;;;-3.60;84.60;;;;;;5014635;28;20598;-72
2024/01/09 09:04:18;;;;;;;1999.90;999.90;;;-3.50;84.70;;;;;;5014195;28;20176;-72
2024/01/09 09:06:44;;;;;;;1999.90;999.90;;;-3.50;83.30;;;;;;5014376;28;20228;-72
2024/01/09 09:09:09;;;;;;;1999.90;999.90;;;-3.40;84.10;;;;;;5014405;28;20271;-72
2024/01/09 09:11:35;;;;;;;1999.90;999.90;;;-3.30;83.00;;;;;;5014360;28;20169;-73
2024/01/09 09:14:01;;;;;;;1999.90;999.90;;;-3.20;83.70;;;;;;5014111;28;20712;-72
2024/01/09 09:16:29;;;;;;;1999.90;999.90;;;-3.10;79.90;;;;;;5014162;28;20986;-73
2024/01/09 09:18:55;;;;;;;1999.90;999.90;;;-3.00;72.90;;;;;;5014145;28;20176;-72
2024/01/09 09:21:20;;;;;;;1999.90;999.90;;;-3.00;76.40;;;;;;5013993;28;20648;-73
2024/01/09 09:23:47;;;;;;;1999.90;999.90;;;-3.20;72.10;;;;;;5013921;28;20497;-72
2024/01/09 09:26:13;;;;;;;1999.90;999.90;;;-3.00;68.90;;;;;;5014286;28;20205;-71
2024/01/09 09:28:40;;;;;;;1999.90;999.90;;;-2.90;68.90;;;;;;5013969;28;20607;-70
2024/01/09 09:31:06;;;;;;;1999.90;999.90;;;-2.80;68.60;;;;;;5014086;28;20220;-70
2024/01/09 09:33:33;;;;;;;1999.90;999.90;;;-2.90;66.80;;;;;;5013311;28;20583;-72
2024/01/09 09:36:06;;;;;;;1999.90;999.90;;;-2.60;65.30;;;;;;5011947;28;20197;-71
2024/01/09 09:38:33;;;;;;;1999.90;999.90;;;-2.60;64.00;;;;;;5009695;28;20675;-71
2024/01/09 09:41:03;;;;;;;1999.90;999.90;;;-2.70;59.40;;;;;;5010868;28;20181;-71
2024/01/09 09:43:32;;;;;;;1999.90;999.90;;;-3.00;57.90;;;;;;5013517;28;20173;-71
2024/01/09 09:46:01;;;;;;;1999.90;999.90;;;-2.60;58.60;;;;;;5010766;28;20193;-72
2024/01/09 09:48:28;;;;;;;1999.90;999.90;;;-2.60;58.10;;;;;;5013032;28;20723;-71
2024/01/09 09:50:55;;;;;;;1999.90;999.90;;;-2.40;58.40;;;;;;5013216;28;20184;-71
2024/01/09 09:53:22;;;;;;;1999.90;999.90;;;-2.30;58.70;;;;;;5012318;28;20174;-71
2024/01/09 09:55:48;;;;;;;1999.90;999.90;;;;;;;;;;5012669;28;20173;-72
2024/01/09 09:58:14;;;;;;;1999.90;999.90;;;-2.40;48.70;;;;;;5043383;22;20231;-71
2024/01/09 10:00:40;;;;;;;1999.90;999.90;;;-2.20;53.00;;;;;;5032041;28;20643;-71
2024/01/09 10:03:08;;;;;;;1999.90;999.90;;;-2.30;52.20;;;;;;5032124;28;20812;-71
2024/01/09 10:05:39;;;;;;;1999.90;999.90;;;-2.10;52.30;;;;;;5031808;28;20177;-71
2024/01/09 10:08:11;;;;;;;1999.90;999.90;;;-2.00;50.60;;;;;;5032022;28;20208;-71
2024/01/09 10:10:37;;;;;;;1999.90;999.90;;;-2.30;45.80;;;;;;5032397;28;20204;-71
2024/01/09 10:13:03;;;;;;;1999.90;999.90;;;-2.10;49.40;;;;;;5031920;28;20196;-71
2024/01/09 10:15:29;;;;;;;1999.90;999.90;;;-2.30;48.60;;;;;;5031969;28;21372;-68
2024/01/09 10:17:55;;;;;;;1999.90;999.90;;;-1.20;50.10;;;;;;5024185;28;20196;-68
2024/01/09 10:20:20;;;;;;;1999.90;999.90;;;-1.90;48.70;;;;;;5032260;28;20941;-68
2024/01/09 10:22:48;;;;;;;1999.90;999.90;;;-1.80;47.80;;;;;;5031747;28;20184;-68
2024/01/09 10:25:13;;;;;;;1999.90;999.90;;;-2.00;46.80;;;;;;5032152;28;20207;-68
2024/01/09 10:27:40;;;;;;;1999.90;999.90;;;-1.80;46.10;;;;;;5031860;28;20690;-69
2024/01/09 10:30:08;;;;;;;1999.90;999.90;;;-1.70;45.80;;;;;;5031630;28;20494;-68
2024/01/09 10:32:35;;;;;;;1999.90;999.90;;;-1.70;44.50;;;;;;5032077;28;20678;-69
2024/01/09 10:35:03;;;;;;;1999.90;999.90;;;-1.60;46.50;;;;;;5031463;28;20200;-68
2024/01/09 10:37:30;;;;;;;1999.90;999.90;;;-1.50;46.40;;;;;;5031289;28;20192;-68
2024/01/09 10:39:56;;;;;;;1999.90;999.90;;;-1.20;45.60;;;;;;5023989;28;20172;-69
2024/01/09 10:42:21;;;;;;;1999.90;999.90;;;-1.10;43.20;;;;;;5031900;28;20187;-69
2024/01/09 10:44:47;;;;;;;1999.90;999.90;;;-1.00;41.10;;;;;;5030774;28;20181;-68
2024/01/09 10:47:14;;;;;;;1999.90;999.90;;;-0.90;23.80;;;;;;5031676;28;20804;-68
2024/01/09 10:49:41;;;;;;;1999.90;999.90;;;-0.80;22.80;;;;;;5031256;28;20461;-68
2024/01/09 10:52:15;;;;;;;1999.90;999.90;;;-0.70;21.70;;;;;;5031329;28;20168;-69
2024/01/09 10:54:42;;;;;;;1999.90;999.90;;;-0.70;20.80;;;;;;5030980;28;20175;-68
2024/01/09 10:57:13;;;;;;;1999.90;999.90;;;-0.60;20.20;;;;;;5031451;28;20223;-69
2024/01/09 10:59:43;;;;;;;1999.90;999.90;;;-0.40;20.20;;;;;;5031269;28;20183;-70
2024/01/09 11:02:12;;;;;;;1999.90;999.90;;;-0.40;18.90;;;;;;5031648;28;20191;-70
2024/01/09 11:04:39;;;;;;;1999.90;999.90;;;-0.30;17.50;;;;;;5030928;28;20184;-70
2024/01/09 11:07:08;;;;;;;1999.90;999.90;;;-0.40;15.30;;;;;;5030482;28;20200;-70
2024/01/09 11:09:37;;;;;;;1999.90;999.90;;;0.40;15.50;;;;;;5030672;28;20543;-70
2024/01/09 11:12:03;;;;;;;1999.90;999.90;;;-0.20;15.70;;;;;;5031594;28;20644;-70
2024/01/09 11:14:29;;;;;;;1999.90;999.90;;;0.00;14.20;;;;;;5030383;28;20176;-70
2024/01/09 11:16:56;;;;;;;1999.90;999.90;;;0.00;13.30;;;;;;5031198;28;20763;-68
2024/01/09 11:19:22;;;;;;;1999.90;999.90;;;0.10;11.80;;;;;;5031267;28;20180;-71
2024/01/09 11:21:48;;;;;;;1999.90;999.90;;;0.10;10.30;;;;;;5030818;28;20310;-70
2024/01/09 11:24:14;;;;;;;1999.90;999.90;;;0.30;11.00;;;;;;5030638;28;20210;-70
2024/01/09 11:26:41;;;;;;;1999.90;999.90;;;0.60;10.90;;;;;;5030421;28;20228;-69
2024/01/09 11:29:07;;;;;;;1999.90;999.90;;;0.70;9.50;;;;;;5031002;28;20164;-70
2024/01/09 11:31:35;;;;;;;1999.90;999.90;;;1.60;6.90;;;;;;5031459;28;20177;-71
2024/01/09 11:34:02;;;;;;;1999.90;999.90;;;2.20;1.00;;;;;;5031130;28;20211;-71
2024/01/09 11:36:29;;;;;;;1999.90;999.90;;;2.70;1.00;;;;;;5030532;28;20195;-69
2024/01/09 11:38:55;;;;;;;1999.90;999.90;;;3.10;1.00;;;;;;5031062;28;20168;-69
2024/01/09 11:41:35;;;;;;;1999.90;999.90;;;4.30;1.00;;;;;;5031241;28;20175;-69
2024/01/09 11:44:02;;;;;;;1999.90;999.90;;;5.00;1.00;;;;;;5030234;28;20180;-70
2024/01/09 11:46:29;;;;;;;1999.90;999.90;;;4.30;1.00;;;;;;5031089;28;20742;-70
2024/01/09 11:48:55;;;;;;;1999.90;999.90;;;4.50;1.00;;;;;;5030843;28;20776;-70
2024/01/09 11:51:22;;;;;;;1999.90;999.90;;;5.70;1.00;;;;;;5030829;28;20756;-70
2024/01/09 11:53:48;;;;;;;1999.90;999.90;;;4.80;1.00;;;;;;5030536;28;20402;-70
2024/01/09 11:56:14;;;;;;;1999.90;999.90;;;5.00;1.00;;;;;;5030920;28;20403;-70
2024/01/09 11:58:41;;;;;;;1999.90;999.90;;;6.00;1.00;;;;;;5030563;28;20804;-68